SKVP/VUP METAR and TAF weather

Enter ICAO airport designator
Station Type Date Time Source
SKVP METAR 2020/01/27 04:00 UTC NOAA

SKVP 270400Z 06010KT 9999 FEW015 27/19 A2999


Station Type Date Time Source
SKVP Decoded METAR 2020/01/27 04:00 UTC NOAA

Valledupar / Alfonso Lopez, Colombia (SKVP) 10-26N 073-15W
Jan 26, 2020 - 11:00 PM EST / 2020.01.27 0400 UTC
Wind: from the ENE (060 degrees) at 12 MPH (10 KT):0
Visibility: greater than 7 mile(s):0
Sky conditions: mostly clear
Temperature: 80 F (27 C)
Dew Point: 66 F (19 C)
Relative Humidity: 61%
Pressure (altimeter): 29.99 in. Hg (1015 hPa)
ob: SKVP 270400Z 06010KT 9999 FEW015 27/19 A2999
cycle: 4

Station Type Date Time Source
SKVP TAF UTC NOAA

Error!

Example: see airport list